Time;durP1;ratioP1;P1;durP2;ratioP2;P2;SDS_P1;SDS_P2;PMS_P1;PMS_P2;Temp;Humidity;BMP_temperature;BMP_pressure;BME280_temperature;BME280_humidity;BME280_pressure;Samples;Min_cycle;Max_cycle;Signal;HPM_P1;HPM_P2
2022/03/15 10:31:04;;;;;;;69.13;39.53;;;;;;;;;;6237887;22;20016;-90
2022/03/15 10:33:32;;;;;;;54.03;35.47;;;;;;;;;;6185257;23;20071;-90
2022/03/15 10:35:58;;;;;;;72.80;40.80;;;;;;;;;;6184767;23;20083;-92
2022/03/15 10:38:25;;;;;;;65.43;39.47;;;;;;;;;;6184619;23;20031;-90
2022/03/15 10:40:52;;;;;;;67.03;41.30;;;;;;;;;;6160646;23;20086;-90
2022/03/15 10:43:23;;;;;;;56.78;35.85;;;;;;;;;;6185376;23;20490;-93
2022/03/15 10:45:58;;;;;;;61.92;36.78;;;;;;;;;;6184183;23;20067;-90
2022/03/15 10:48:30;;;;;;;60.38;37.15;;;;;;;;;;6187564;23;20016;-90
2022/03/15 10:51:08;;;;;;;61.42;39.78;;;;;;;;;;6188614;23;20016;-91
2022/03/15 10:53:34;;;;;;;;;;;;;;;;;;6187478;23;20023;-90
2022/03/15 10:56:29;;;;;;;59.53;37.05;;;;;;;;;;6212978;23;19911;-90
2022/03/15 10:59:05;;;;;;;63.70;38.45;;;;;;;;;;6188922;23;20012;-92
2022/03/15 11:02:08;;;;;;;;;;;;;;;;;;;;;
2022/03/15 11:04:59;;;;;;;68.75;42.15;;;;;;;;;;6211040;23;20050;-90
2022/03/15 11:07:47;;;;;;;56.22;37.33;;;;;;;;;;6187569;23;20016;-92
2022/03/15 11:10:20;;;;;;;51.72;35.38;;;;;;;;;;6186724;23;20021;-91
2022/03/15 11:13:11;;;;;;;51.92;33.80;;;;;;;;;;6162670;23;20012;-91
2022/03/15 11:15:53;;;;;;;56.95;35.33;;;;;;;;;;6187374;23;20326;-90
2022/03/15 11:18:25;;;;;;;55.35;34.50;;;;;;;;;;6187906;23;20012;-90
2022/03/15 11:20:55;;;;;;;45.58;30.52;;;;;;;;;;6187378;23;20059;-90
2022/03/15 11:23:25;;;;;;;49.70;33.67;;;;;;;;;;6164128;23;20060;-90
2022/03/15 11:26:05;;;;;;;41.20;25.58;;;;;;;;;;6187686;23;20034;-90
2022/03/15 11:28:34;;;;;;;45.35;27.63;;;;;;;;;;6187540;23;20043;-91
2022/03/15 11:31:00;;;;;;;45.20;29.27;;;;;;;;;;6181970;23;20457;-90
2022/03/15 11:33:28;;;;;;;44.10;28.55;;;;;;;;;;6182847;23;20044;-91
2022/03/15 11:35:55;;;;;;;44.85;31.50;;;;;;;;;;6183710;23;20468;-91
2022/03/15 11:38:21;;;;;;;48.70;30.65;;;;;;;;;;6183379;23;20012;-91
2022/03/15 11:40:51;;;;;;;40.97;27.83;;;;;;;;;;6181650;23;20017;-90
2022/03/15 11:43:26;;;;;;;43.17;27.88;;;;;;;;;;6182720;23;20343;-90
2022/03/15 11:45:56;;;;;;;39.20;28.38;;;;;;;;;;6182271;23;20438;-90
2022/03/15 11:48:29;;;;;;;40.58;28.08;;;;;;;;;;6182163;23;20012;-90
2022/03/15 11:51:05;;;;;;;42.05;29.48;;;;;;;;;;6182540;23;20019;-91
2022/03/15 11:53:38;;;;;;;43.10;28.95;;;;;;;;;;6181956;23;20459;-93
2022/03/15 11:56:11;;;;;;;39.75;27.63;;;;;;;;;;6182617;23;20637;-90
2022/03/15 11:58:38;;;;;;;43.30;29.83;;;;;;;;;;6182079;23;20021;-90
2022/03/15 12:01:12;;;;;;;40.13;28.38;;;;;;;;;;6183066;23;20023;-91
2022/03/15 12:03:52;;;;;;;38.58;27.25;;;;;;;;;;6181699;23;20020;-90
2022/03/15 12:06:20;;;;;;;38.28;26.48;;;;;;;;;;6183326;23;20016;-90
2022/03/15 12:08:53;;;;;;;41.08;27.30;;;;;;;;;;6182645;23;20058;-91
2022/03/15 12:11:27;;;;;;;42.47;28.90;;;;;;;;;;6185693;23;20508;-90
2022/03/15 12:13:56;;;;;;;42.60;27.58;;;;;;;;;;6183231;23;20012;-90
2022/03/15 12:16:33;;;;;;;34.17;25.15;;;;;;;;;;6182940;23;20012;-92
2022/03/15 12:19:30;;;;;;;38.03;26.83;;;;;;;;;;6182156;23;20021;-90
2022/03/15 12:21:57;;;;;;;42.28;27.38;;;;;;;;;;6182098;23;20013;-92
2022/03/15 12:24:30;;;;;;;44.17;28.75;;;;;;;;;;6182909;23;20019;-90
2022/03/15 12:27:01;;;;;;;43.38;26.75;;;;;;;;;;6182717;23;20069;-90
2022/03/15 12:29:27;;;;;;;38.33;26.23;;;;;;;;;;6186707;23;20059;-92
2022/03/15 12:31:54;;;;;;;39.30;27.23;;;;;;;;;;6187415;23;20066;-90
2022/03/15 12:34:23;;;;;;;38.83;26.83;;;;;;;;;;6161702;23;20016;-90
2022/03/15 12:36:59;;;;;;;39.60;25.38;;;;;;;;;;6162007;23;20466;-91
2022/03/15 12:39:27;;;;;;;36.55;25.15;;;;;;;;;;6186484;23;20020;-91
2022/03/15 12:42:12;;;;;;;37.42;24.25;;;;;;;;;;6187014;23;20019;-90
2022/03/15 12:44:48;;;;;;;33.30;23.67;;;;;;;;;;6188340;23;20023;-90
2022/03/15 12:47:16;;;;;;;36.42;23.73;;;;;;;;;;6186273;23;20085;-90
2022/03/15 12:49:43;;;;;;;34.20;22.45;;;;;;;;;;6186722;23;20008;-92
2022/03/15 12:52:10;;;;;;;32.28;22.92;;;;;;;;;;6186064;23;20075;-90
2022/03/15 12:54:36;;;;;;;29.02;21.50;;;;;;;;;;6187120;23;20284;-92
2022/03/15 12:57:10;;;;;;;33.30;21.98;;;;;;;;;;6159640;23;20110;-92
2022/03/15 12:59:36;;;;;;;34.88;22.70;;;;;;;;;;6186293;23;20094;-91
2022/03/15 13:02:04;;;;;;;36.72;23.10;;;;;;;;;;6185374;23;20016;-90
2022/03/15 13:04:32;;;;;;;34.38;22.90;;;;;;;;;;6185679;23;20015;-90
2022/03/15 13:07:04;;;;;;;32.92;22.50;;;;;;;;;;6183674;23;20008;-90
2022/03/15 13:09:30;;;;;;;35.53;22.92;;;;;;;;;;6184667;23;20201;-89
2022/03/15 13:11:57;;;;;;;33.30;21.35;;;;;;;;;;6184888;23;20071;-90
2022/03/15 13:14:27;;;;;;;34.10;21.48;;;;;;;;;;6185703;23;20024;-90
2022/03/15 13:16:56;;;;;;;33.50;22.60;;;;;;;;;;6161493;23;20055;-90
2022/03/15 13:19:31;;;;;;;30.38;21.63;;;;;;;;;;6187327;23;20016;-92
2022/03/15 13:22:01;;;;;;;32.33;20.95;;;;;;;;;;6186120;23;20014;-91
2022/03/15 13:24:35;;;;;;;32.20;20.92;;;;;;;;;;6185971;23;20008;-91
2022/03/15 13:27:01;;;;;;;29.65;19.92;;;;;;;;;;6187234;23;20385;-90
2022/03/15 13:29:34;;;;;;;28.40;17.83;;;;;;;;;;6189886;23;20043;-91
2022/03/15 13:32:01;;;;;;;27.33;18.60;;;;;;;;;;6187128;23;20035;-91
2022/03/15 13:34:28;;;;;;;33.33;20.92;;;;;;;;;;6185357;23;20349;-93
2022/03/15 13:37:00;;;;;;;33.03;21.48;;;;;;;;;;6184409;23;20018;-92
2022/03/15 13:39:27;;;;;;;26.95;17.20;;;;;;;;;;6183997;23;20012;-92
2022/03/15 13:41:54;;;;;;;30.35;17.38;;;;;;;;;;6186150;23;20518;-90
2022/03/15 13:44:26;;;;;;;32.63;16.55;;;;;;;;;;6187569;23;20091;-92
2022/03/15 13:46:54;;;;;;;21.30;15.40;;;;;;;;;;6186259;23;20018;-93
2022/03/15 13:49:28;;;;;;;27.23;17.15;;;;;;;;;;6185130;23;20235;-93
2022/03/15 13:52:07;;;;;;;32.90;16.88;;;;;;;;;;6184670;23;20012;-90
2022/03/15 13:55:00;;;;;;;24.40;15.60;;;;;;;;;;6185470;23;20019;-88
2022/03/15 13:57:26;;;;;;;;;;;;;;;;;;6210977;23;20020;-88
2022/03/15 13:59:56;;;;;;;26.23;16.17;;;;;;;;;;6186422;23;19954;-88
2022/03/15 14:02:23;;;;;;;27.92;15.82;;;;;;;;;;6184605;23;20047;-89
2022/03/15 14:05:00;;;;;;;24.90;14.68;;;;;;;;;;6182399;23;20020;-89
2022/03/15 14:07:27;;;;;;;22.88;14.63;;;;;;;;;;6188049;23;20046;-87
2022/03/15 14:10:00;;;;;;;29.10;15.20;;;;;;;;;;6189542;23;20012;-90
2022/03/15 14:12:33;;;;;;;23.73;14.73;;;;;;;;;;6187215;23;20016;-89
2022/03/15 14:15:06;;;;;;;26.23;15.18;;;;;;;;;;6193443;23;20046;-89
2022/03/15 14:17:48;;;;;;;23.75;15.10;;;;;;;;;;6192752;23;20460;-90
2022/03/15 14:20:29;;;;;;;21.83;15.77;;;;;;;;;;6190996;23;20048;-89
2022/03/15 14:22:56;;;;;;;22.73;14.90;;;;;;;;;;6189937;23;20243;-89
2022/03/15 14:25:25;;;;;;;23.08;15.00;;;;;;;;;;6192998;23;20082;-89
2022/03/15 14:27:56;;;;;;;19.38;13.73;;;;;;;;;;6191064;23;20445;-90
2022/03/15 14:30:22;;;;;;;28.00;15.77;;;;;;;;;;6188952;23;20019;-89
2022/03/15 14:32:49;;;;;;;26.67;15.65;;;;;;;;;;6164398;23;20617;-89
2022/03/15 14:35:18;;;;;;;23.17;16.77;;;;;;;;;;6161859;23;20094;-90
2022/03/15 14:37:47;;;;;;;26.02;16.30;;;;;;;;;;6160151;23;20515;-91
2022/03/15 14:40:14;;;;;;;24.17;15.35;;;;;;;;;;6160089;23;20008;-90
2022/03/15 14:42:51;;;;;;;26.15;15.20;;;;;;;;;;6186574;23;20261;-90
2022/03/15 14:45:18;;;;;;;23.48;15.60;;;;;;;;;;6184105;23;20528;-90
2022/03/15 14:47:44;;;;;;;22.83;14.68;;;;;;;;;;6160815;23;20020;-90
2022/03/15 14:50:15;;;;;;;22.30;14.88;;;;;;;;;;6184399;23;20019;-90
2022/03/15 14:52:42;;;;;;;25.13;16.10;;;;;;;;;;6183842;23;20020;-91
2022/03/15 14:55:09;;;;;;;21.70;16.10;;;;;;;;;;6184560;23;20083;-92
2022/03/15 14:57:37;;;;;;;28.75;16.38;;;;;;;;;;6184706;23;20410;-91
2022/03/15 15:00:04;;;;;;;23.10;16.10;;;;;;;;;;6186381;23;20009;-90
2022/03/15 15:02:31;;;;;;;26.55;16.45;;;;;;;;;;6182999;23;20413;-90
2022/03/15 15:05:01;;;;;;;20.85;16.92;;;;;;;;;;6160600;23;20413;-90
2022/03/15 15:07:27;;;;;;;24.38;15.57;;;;;;;;;;6158736;23;20054;-91
2022/03/15 15:09:55;;;;;;;25.40;17.00;;;;;;;;;;6185239;23;20013;-91
2022/03/15 15:12:21;;;;;;;24.00;17.23;;;;;;;;;;6188296;23;20020;-91
2022/03/15 15:14:49;;;;;;;25.30;17.58;;;;;;;;;;6163370;23;20437;-90
2022/03/15 15:17:18;;;;;;;27.02;16.75;;;;;;;;;;6185937;23;20019;-91
2022/03/15 15:19:45;;;;;;;28.38;18.25;;;;;;;;;;6184657;23;20535;-91
2022/03/15 15:22:11;;;;;;;25.88;17.60;;;;;;;;;;6161477;23;20043;-91
2022/03/15 15:24:39;;;;;;;28.60;18.77;;;;;;;;;;6162015;23;20014;-90
2022/03/15 15:27:05;;;;;;;33.55;20.38;;;;;;;;;;6185925;23;20015;-90
2022/03/15 15:29:33;;;;;;;30.17;19.15;;;;;;;;;;6186625;23;20364;-90
2022/03/15 15:32:00;;;;;;;27.58;19.20;;;;;;;;;;6187225;23;20016;-91
2022/03/15 15:34:31;;;;;;;28.80;20.35;;;;;;;;;;6239054;23;20067;-90
2022/03/15 15:36:57;;;;;;;30.27;20.02;;;;;;;;;;6162825;23;20008;-89
2022/03/15 15:39:24;;;;;;;32.65;19.55;;;;;;;;;;6163070;23;20557;-90
2022/03/15 15:41:50;;;;;;;29.00;19.75;;;;;;;;;;6186685;23;20395;-89
2022/03/15 15:44:16;;;;;;;30.02;20.38;;;;;;;;;;6186367;23;20019;-90
2022/03/15 15:46:45;;;;;;;30.98;20.00;;;;;;;;;;6186331;23;20009;-89
2022/03/15 15:49:11;;;;;;;31.42;19.48;;;;;;;;;;6162758;23;20019;-90
2022/03/15 15:51:40;;;;;;;31.50;20.15;;;;;;;;;;6162204;23;20368;-91
2022/03/15 15:54:08;;;;;;;29.65;20.73;;;;;;;;;;6163581;23;20026;-91
2022/03/15 15:56:36;;;;;;;33.70;21.33;;;;;;;;;;6186271;23;20095;-91
2022/03/15 15:59:03;;;;;;;36.17;21.77;;;;;;;;;;6187605;23;20143;-90
2022/03/15 16:01:32;;;;;;;34.03;21.02;;;;;;;;;;6162937;23;20023;-92
2022/03/15 16:03:59;;;;;;;33.42;21.00;;;;;;;;;;6189384;23;20016;-89
2022/03/15 16:06:28;;;;;;;35.20;21.45;;;;;;;;;;6190769;23;20105;-92
2022/03/15 16:08:54;;;;;;;30.95;21.33;;;;;;;;;;6187242;23;20015;-90
2022/03/15 16:11:22;;;;;;;32.42;21.48;;;;;;;;;;6162363;23;20400;-89
2022/03/15 16:13:48;;;;;;;36.90;22.40;;;;;;;;;;6186466;23;20024;-89
2022/03/15 16:16:15;;;;;;;34.67;20.42;;;;;;;;;;6162653;23;20013;-88
2022/03/15 16:18:42;;;;;;;34.17;21.75;;;;;;;;;;6185385;23;20019;-90
2022/03/15 16:21:15;;;;;;;33.63;21.45;;;;;;;;;;6186001;23;20066;-90
2022/03/15 16:23:41;;;;;;;34.95;22.85;;;;;;;;;;6186117;23;20031;-90
2022/03/15 16:26:07;;;;;;;34.67;24.08;;;;;;;;;;6162517;23;20350;-89
2022/03/15 16:28:33;;;;;;;43.13;27.60;;;;;;;;;;6186855;23;20067;-89
2022/03/15 16:31:00;;;;;;;41.17;23.60;;;;;;;;;;6161236;23;20026;-89
2022/03/15 16:33:26;;;;;;;39.67;25.75;;;;;;;;;;6182767;23;20022;-89
2022/03/15 16:35:56;;;;;;;36.30;24.67;;;;;;;;;;6181331;23;20329;-89
2022/03/15 16:38:23;;;;;;;40.03;24.27;;;;;;;;;;6183014;23;20012;-89
2022/03/15 16:40:49;;;;;;;42.65;25.20;;;;;;;;;;6186387;23;20021;-91
2022/03/15 16:43:16;;;;;;;38.10;25.35;;;;;;;;;;6185874;23;20023;-90
2022/03/15 16:45:42;;;;;;;41.10;24.73;;;;;;;;;;6186253;23;20008;-90
2022/03/15 16:48:12;;;;;;;39.88;25.45;;;;;;;;;;6185538;23;20024;-91
2022/03/15 16:50:39;;;;;;;40.72;25.77;;;;;;;;;;6185062;23;20024;-90
2022/03/15 16:53:06;;;;;;;46.05;25.60;;;;;;;;;;6161722;23;20012;-90
2022/03/15 16:55:34;;;;;;;36.17;24.08;;;;;;;;;;6186113;23;20016;-89
2022/03/15 16:58:00;;;;;;;42.40;25.02;;;;;;;;;;6184765;23;20046;-92
2022/03/15 17:00:27;;;;;;;38.03;25.92;;;;;;;;;;6184452;23;20547;-89
2022/03/15 17:02:53;;;;;;;34.70;22.55;;;;;;;;;;6182787;23;20016;-89
2022/03/15 17:08:04;;;;;;;44.90;26.77;;;;;;;;;;6234597;23;20024;-89
2022/03/15 17:10:31;;;;;;;40.78;24.88;;;;;;;;;;6157369;23;20066;-89
2022/03/15 17:12:57;;;;;;;44.85;26.00;;;;;;;;;;6182637;23;20047;-90
2022/03/15 17:15:23;;;;;;;49.53;26.13;;;;;;;;;;6161352;23;20453;-89
2022/03/15 17:17:55;;;;;;;42.22;25.73;;;;;;;;;;6183929;23;20409;-89
2022/03/15 17:20:27;;;;;;;39.25;24.52;;;;;;;;;;6186862;23;20047;-89
2022/03/15 17:22:57;;;;;;;41.88;27.13;;;;;;;;;;6163452;23;20016;-89
2022/03/15 17:25:24;;;;;;;40.28;27.05;;;;;;;;;;6213338;23;20016;-91
2022/03/15 17:27:50;;;;;;;45.13;27.33;;;;;;;;;;6160544;23;20054;-90
2022/03/15 17:30:17;;;;;;;50.05;28.38;;;;;;;;;;6188046;23;20015;-90
2022/03/15 17:32:46;;;;;;;49.55;28.83;;;;;;;;;;6184757;23;20012;-91
2022/03/15 17:35:14;;;;;;;48.17;30.13;;;;;;;;;;6186303;23;20012;-91
2022/03/15 17:37:40;;;;;;;47.30;31.10;;;;;;;;;;6183411;23;20093;-89
2022/03/15 17:40:06;;;;;;;46.92;30.88;;;;;;;;;;6160393;23;20307;-89
2022/03/15 17:42:37;;;;;;;47.22;29.05;;;;;;;;;;6158363;23;20511;-89
2022/03/15 17:45:10;;;;;;;49.28;30.77;;;;;;;;;;6185435;23;20012;-89
2022/03/15 17:47:37;;;;;;;52.80;33.25;;;;;;;;;;6189107;23;20058;-91
2022/03/15 17:50:04;;;;;;;50.55;31.40;;;;;;;;;;6187361;23;20012;-91
2022/03/15 17:52:33;;;;;;;53.30;31.27;;;;;;;;;;6162669;23;20016;-91
2022/03/15 17:55:01;;;;;;;55.42;32.97;;;;;;;;;;6186632;23;20107;-91
2022/03/15 17:57:29;;;;;;;55.10;32.88;;;;;;;;;;6162875;23;20015;-92
2022/03/15 18:00:00;;;;;;;52.38;33.30;;;;;;;;;;6162964;23;20020;-91
2022/03/15 18:02:31;;;;;;;55.85;34.30;;;;;;;;;;6186260;23;20457;-90
2022/03/15 18:05:05;;;;;;;60.50;33.13;;;;;;;;;;6187179;23;20012;-92
2022/03/15 18:07:33;;;;;;;61.70;35.35;;;;;;;;;;6162716;23;20651;-91
2022/03/15 18:09:59;;;;;;;55.67;34.58;;;;;;;;;;6186527;23;20465;-91
2022/03/15 18:12:29;;;;;;;55.42;34.20;;;;;;;;;;6161911;23;20020;-90
2022/03/15 18:14:56;;;;;;;52.92;33.22;;;;;;;;;;6188025;23;20083;-91
2022/03/15 18:17:25;;;;;;;53.70;33.15;;;;;;;;;;6186897;23;20035;-91
2022/03/15 18:19:51;;;;;;;57.50;35.75;;;;;;;;;;6160804;23;20008;-92
2022/03/15 18:22:19;;;;;;;53.42;34.95;;;;;;;;;;6188046;23;20515;-92
2022/03/15 18:24:48;;;;;;;61.42;35.10;;;;;;;;;;6186412;23;20349;-92
2022/03/15 18:27:18;;;;;;;57.30;34.58;;;;;;;;;;6184545;23;20016;-92
2022/03/15 18:29:44;;;;;;;65.20;36.28;;;;;;;;;;6184661;23;20027;-91
2022/03/15 18:32:11;;;;;;;54.97;32.90;;;;;;;;;;6160922;23;20054;-91
2022/03/15 18:34:37;;;;;;;57.97;35.22;;;;;;;;;;6162904;23;20012;-91
2022/03/15 18:37:03;;;;;;;56.00;35.22;;;;;;;;;;6186357;23;20353;-91
2022/03/15 18:39:30;;;;;;;63.13;37.35;;;;;;;;;;6162087;23;20027;-92
2022/03/15 18:41:59;;;;;;;58.33;34.83;;;;;;;;;;6161963;23;20073;-91
2022/03/15 18:44:25;;;;;;;62.97;35.25;;;;;;;;;;6161591;23;20018;-90
2022/03/15 18:46:52;;;;;;;56.85;33.25;;;;;;;;;;6189387;23;20047;-91
2022/03/15 18:49:19;;;;;;;50.72;31.23;;;;;;;;;;6165058;23;20027;-91
2022/03/15 18:51:46;;;;;;;58.03;32.25;;;;;;;;;;6165227;23;20016;-91
2022/03/15 18:54:12;;;;;;;56.28;33.28;;;;;;;;;;6188916;23;20450;-91
2022/03/15 18:56:39;;;;;;;54.92;32.38;;;;;;;;;;6163703;23;20106;-91
2022/03/15 18:59:06;;;;;;;54.00;32.33;;;;;;;;;;6161810;23;20519;-90
2022/03/15 19:01:32;;;;;;;55.72;33.63;;;;;;;;;;6184119;23;20461;-90
2022/03/15 19:04:02;;;;;;;63.78;36.40;;;;;;;;;;6186191;23;20015;-91
2022/03/15 19:06:29;;;;;;;54.80;32.40;;;;;;;;;;6182675;23;20012;-91
2022/03/15 19:08:55;;;;;;;57.70;33.22;;;;;;;;;;6182969;23;20020;-90
2022/03/15 19:11:23;;;;;;;54.97;30.50;;;;;;;;;;6182459;23;20016;-91
2022/03/15 19:13:51;;;;;;;54.72;32.15;;;;;;;;;;6183551;23;20078;-92
2022/03/15 19:16:18;;;;;;;50.00;29.85;;;;;;;;;;6191449;23;20054;-92
2022/03/15 19:18:50;;;;;;;58.85;32.28;;;;;;;;;;6188876;23;20058;-92
2022/03/15 19:21:19;;;;;;;47.85;29.80;;;;;;;;;;6190224;23;20020;-92
2022/03/15 19:23:46;;;;;;;57.33;33.38;;;;;;;;;;6190637;23;20012;-93
2022/03/15 19:26:16;;;;;;;53.00;31.55;;;;;;;;;;6165670;23;20020;-90
2022/03/15 19:28:44;;;;;;;53.05;31.85;;;;;;;;;;6165030;23;20016;-91
2022/03/15 19:31:17;;;;;;;63.38;36.13;;;;;;;;;;6190806;23;20031;-91
2022/03/15 19:33:44;;;;;;;66.38;35.55;;;;;;;;;;6187718;23;20016;-92
2022/03/15 19:36:11;;;;;;;67.25;37.33;;;;;;;;;;6187704;23;20027;-92
2022/03/15 19:38:38;;;;;;;64.57;37.00;;;;;;;;;;6187971;23;20019;-91
2022/03/15 19:41:04;;;;;;;69.95;38.17;;;;;;;;;;6162832;23;20334;-91
2022/03/15 19:43:34;;;;;;;66.63;36.72;;;;;;;;;;6162526;23;20097;-91
2022/03/15 19:46:00;;;;;;;64.25;37.70;;;;;;;;;;6161516;23;20385;-90
2022/03/15 19:48:29;;;;;;;64.40;37.10;;;;;;;;;;6160611;23;20020;-91
2022/03/15 19:50:56;;;;;;;63.25;38.60;;;;;;;;;;6161651;23;20020;-91
2022/03/15 19:53:24;;;;;;;68.13;39.92;;;;;;;;;;6186175;23;20016;-91
2022/03/15 19:55:50;;;;;;;70.80;39.03;;;;;;;;;;6163328;23;20012;-94
2022/03/15 19:58:16;;;;;;;68.18;37.92;;;;;;;;;;6187462;23;20074;-92
2022/03/15 20:00:43;;;;;;;66.00;38.47;;;;;;;;;;6185851;23;20008;-91
2022/03/15 20:03:09;;;;;;;71.13;41.28;;;;;;;;;;6161235;23;20143;-94
2022/03/15 20:05:36;;;;;;;61.67;37.78;;;;;;;;;;6160129;23;20008;-92
2022/03/15 20:08:02;;;;;;;80.47;44.00;;;;;;;;;;6186761;23;20055;-92
2022/03/15 20:10:29;;;;;;;71.80;42.15;;;;;;;;;;6188864;23;20361;-90
2022/03/15 20:12:58;;;;;;;67.15;38.45;;;;;;;;;;6164815;23;20085;-92
2022/03/15 20:15:32;;;;;;;76.70;42.83;;;;;;;;;;6191029;23;20020;-91
2022/03/15 20:18:04;;;;;;;74.15;41.20;;;;;;;;;;6185474;23;20035;-93
2022/03/15 20:20:32;;;;;;;66.50;39.05;;;;;;;;;;6211743;23;20023;-93
2022/03/15 20:23:00;;;;;;;75.38;41.13;;;;;;;;;;6184326;23;20016;-92
2022/03/15 20:25:27;;;;;;;70.90;40.97;;;;;;;;;;6206347;23;20040;-93
2022/03/15 20:27:57;;;;;;;75.00;41.97;;;;;;;;;;6206316;23;20016;-92
2022/03/15 20:30:23;;;;;;;73.00;41.38;;;;;;;;;;6206063;23;20047;-92
2022/03/15 20:32:51;;;;;;;72.80;40.83;;;;;;;;;;6180039;23;20031;-91
2022/03/15 20:35:17;;;;;;;77.85;43.38;;;;;;;;;;6175296;23;20012;-93
2022/03/15 20:37:44;;;;;;;77.63;39.83;;;;;;;;;;6184545;23;20016;-92
2022/03/15 20:40:12;;;;;;;71.50;40.85;;;;;;;;;;6184625;23;20864;-90
2022/03/15 20:45:23;;;;;;;71.40;39.55;;;;;;;;;;6188937;23;20523;-91
2022/03/15 20:47:49;;;;;;;80.40;44.17;;;;;;;;;;6186555;23;20059;-91
2022/03/15 20:50:16;;;;;;;77.97;44.33;;;;;;;;;;6160703;23;20016;-91
2022/03/15 20:52:43;;;;;;;71.72;38.90;;;;;;;;;;6233553;23;20073;-90
2022/03/15 20:55:10;;;;;;;76.15;43.13;;;;;;;;;;6159810;23;20024;-91
2022/03/15 20:57:36;;;;;;;64.90;37.42;;;;;;;;;;6180090;23;20022;-91
2022/03/15 21:00:04;;;;;;;76.72;40.53;;;;;;;;;;6158578;23;20016;-92
2022/03/15 21:02:30;;;;;;;67.55;39.17;;;;;;;;;;6182767;23;20008;-91
2022/03/15 21:04:57;;;;;;;77.07;40.00;;;;;;;;;;6161789;23;20089;-92
2022/03/15 21:07:23;;;;;;;72.53;41.13;;;;;;;;;;6187472;23;20023;-91
2022/03/15 21:09:49;;;;;;;71.78;40.17;;;;;;;;;;6163583;23;20016;-91
2022/03/15 21:12:20;;;;;;;74.35;42.20;;;;;;;;;;6183559;23;20508;-91
2022/03/15 21:14:47;;;;;;;80.05;44.33;;;;;;;;;;6162810;23;20095;-91
2022/03/15 21:17:16;;;;;;;68.30;39.13;;;;;;;;;;6163180;23;20012;-91
2022/03/15 21:19:50;;;;;;;76.00;42.15;;;;;;;;;;6162855;23;20016;-91
2022/03/15 21:22:21;;;;;;;73.15;40.88;;;;;;;;;;6183368;23;20016;-92
2022/03/15 21:24:48;;;;;;;70.13;40.88;;;;;;;;;;6183716;23;20446;-91
2022/03/15 21:27:16;;;;;;;73.50;41.40;;;;;;;;;;6158694;23;20319;-90
2022/03/15 21:29:48;;;;;;;76.45;41.28;;;;;;;;;;6184318;23;20016;-91
2022/03/15 21:32:14;;;;;;;70.15;41.13;;;;;;;;;;6161406;23;20327;-91
2022/03/15 21:34:41;;;;;;;70.95;39.38;;;;;;;;;;6184701;23;20503;-91
2022/03/15 21:37:10;;;;;;;78.47;43.95;;;;;;;;;;6160295;23;20016;-92
2022/03/15 21:39:36;;;;;;;73.85;40.45;;;;;;;;;;6184990;23;20087;-92
2022/03/15 21:42:06;;;;;;;66.05;40.80;;;;;;;;;;6182408;23;20047;-91
